createdAt,value
2018-07-19T00:00:05.817Z,52.69
2018-07-19T00:00:37.017Z,53.54
2018-07-19T00:01:08.208Z,53.07
2018-07-19T00:01:39.406Z,53.05
2018-07-19T00:02:10.579Z,53.89
2018-07-19T00:02:41.748Z,53.85
2018-07-19T00:03:12.904Z,53.75
2018-07-19T00:03:44.034Z,53.19
2018-07-19T00:04:15.219Z,53.49
2018-07-19T00:04:46.332Z,53.79
2018-07-19T00:05:17.508Z,54.01
2018-07-19T00:05:48.717Z,54.10
2018-07-19T00:06:20.007Z,53.56
2018-07-19T00:06:51.172Z,53.61
2018-07-19T00:07:22.311Z,53.63
2018-07-19T00:07:53.535Z,54.10
2018-07-19T00:08:24.717Z,54.43
2018-07-19T00:08:55.867Z,54.45
2018-07-19T00:09:27.019Z,54.52
2018-07-19T00:09:58.136Z,53.76
2018-07-19T00:10:29.251Z,54.31
2018-07-19T00:11:00.564Z,54.30
2018-07-19T00:11:31.766Z,53.79
2018-07-19T00:12:03.010Z,53.51
2018-07-19T00:12:34.253Z,54.19
2018-07-19T00:13:05.477Z,53.93
2018-07-19T00:13:36.648Z,53.47
2018-07-19T00:14:07.790Z,53.48
2018-07-19T00:14:38.943Z,54.11
2018-07-19T00:15:10.115Z,53.15
2018-07-19T00:15:41.259Z,53.03
2018-07-19T00:16:12.476Z,53.97
2018-07-19T00:16:43.724Z,54.00
2018-07-19T00:17:14.989Z,54.06
2018-07-19T00:17:46.226Z,54.14
2018-07-19T00:18:17.407Z,53.48
2018-07-19T00:18:48.536Z,53.28
2018-07-19T00:19:19.738Z,53.28
2018-07-19T00:19:50.940Z,53.91
2018-07-19T00:20:22.075Z,53.42
2018-07-19T00:20:53.787Z,53.71
2018-07-19T00:21:24.973Z,54.47
2018-07-19T00:21:56.147Z,53.78
2018-07-19T00:22:27.851Z,53.90
2018-07-19T00:22:58.980Z,54.29
2018-07-19T00:23:30.192Z,54.06
2018-07-19T00:24:01.470Z,54.39
2018-07-19T00:24:32.663Z,53.98
2018-07-19T00:25:03.786Z,54.63
2018-07-19T00:25:34.982Z,54.79
2018-07-19T00:26:06.119Z,54.89
2018-07-19T00:26:37.302Z,54.41
2018-07-19T00:27:08.436Z,54.20
2018-07-19T00:27:39.620Z,54.47
2018-07-19T00:28:10.795Z,54.93
2018-07-19T00:28:41.956Z,54.93
2018-07-19T00:29:13.075Z,54.86
2018-07-19T00:29:44.278Z,54.63
2018-07-19T00:30:15.473Z,54.96
2018-07-19T00:30:46.647Z,54.60
2018-07-19T00:31:17.779Z,54.86
2018-07-19T00:31:48.986Z,54.95
2018-07-19T00:32:20.167Z,54.56
2018-07-19T00:32:51.295Z,54.19
2018-07-19T00:33:53.553Z,54.96
2018-07-19T00:34:24.780Z,54.76
2018-07-19T00:34:55.952Z,54.74
2018-07-19T00:35:27.136Z,54.09
2018-07-19T00:35:58.336Z,54.39
2018-07-19T00:36:29.549Z,54.84
2018-07-19T00:37:00.755Z,54.71
2018-07-19T00:37:31.892Z,54.30
2018-07-19T00:38:03.068Z,54.64
2018-07-19T00:38:34.283Z,54.79
2018-07-19T00:39:05.512Z,55.06
2018-07-19T00:39:36.709Z,55.02
2018-07-19T00:40:07.908Z,54.63
2018-07-19T00:40:39.110Z,54.83
2018-07-19T00:41:10.299Z,55.34
2018-07-19T00:41:41.542Z,55.37
2018-07-19T00:42:12.717Z,55.41
2018-07-19T00:42:43.909Z,55.32
2018-07-19T00:43:15.103Z,54.91
2018-07-19T00:43:46.310Z,55.74
2018-07-19T00:44:17.528Z,55.05
2018-07-19T00:44:48.721Z,55.34
2018-07-19T00:45:19.850Z,55.38
2018-07-19T00:45:51.621Z,55.25
2018-07-19T00:46:22.811Z,54.97
2018-07-19T00:46:53.992Z,54.95
2018-07-19T00:47:25.151Z,54.56
2018-07-19T00:47:56.312Z,54.94
2018-07-19T00:48:27.435Z,54.83
2018-07-19T00:48:58.559Z,54.37
2018-07-19T00:49:29.801Z,54.46
2018-07-19T00:50:01.064Z,54.86
2018-07-19T00:50:32.264Z,54.41
2018-07-19T00:51:03.395Z,54.38
2018-07-19T00:51:34.590Z,53.88
2018-07-19T00:52:05.712Z,53.51
2018-07-19T00:52:36.953Z,54.26
2018-07-19T00:53:08.135Z,53.53
2018-07-19T00:53:39.258Z,54.17
2018-07-19T00:54:10.387Z,54.06
2018-07-19T00:54:41.501Z,53.77
2018-07-19T00:55:12.737Z,53.99
2018-07-19T00:55:43.917Z,54.35
2018-07-19T00:56:15.108Z,53.85
2018-07-19T00:56:46.332Z,53.68
2018-07-19T00:57:17.460Z,53.99
2018-07-19T00:57:48.604Z,53.73
2018-07-19T00:58:19.735Z,54.36
2018-07-19T00:58:50.877Z,54.10
2018-07-19T00:59:22.021Z,54.40
2018-07-19T00:59:53.151Z,54.43
2018-07-19T01:00:24.315Z,54.47
2018-07-19T01:00:55.451Z,53.93
2018-07-19T01:01:26.580Z,54.61
2018-07-19T01:01:57.701Z,54.55
2018-07-19T01:02:28.872Z,54.51
2018-07-19T01:03:00.004Z,53.83
2018-07-19T01:03:31.249Z,53.97
2018-07-19T01:04:02.440Z,54.73
2018-07-19T01:04:33.632Z,53.92
2018-07-19T01:05:04.848Z,53.42
2018-07-19T01:05:37.041Z,53.24
2018-07-19T01:06:08.176Z,53.22
2018-07-19T01:06:39.291Z,53.16
2018-07-19T01:07:10.533Z,53.96
2018-07-19T01:07:41.693Z,53.84
2018-07-19T01:08:12.826Z,53.95
2018-07-19T01:08:43.952Z,53.66
2018-07-19T01:09:15.140Z,53.54
2018-07-19T01:09:46.301Z,53.08
2018-07-19T01:10:17.432Z,52.92
2018-07-19T01:10:48.663Z,52.89
2018-07-19T01:11:19.848Z,53.08
2018-07-19T01:11:51.044Z,53.02
2018-07-19T01:12:22.212Z,53.60
2018-07-19T01:12:53.372Z,53.09
2018-07-19T01:13:24.508Z,53.91
2018-07-19T01:13:55.687Z,53.42
2018-07-19T01:14:26.879Z,54.28
2018-07-19T01:14:58.043Z,54.16
2018-07-19T01:15:29.268Z,54.08
2018-07-19T01:16:00.486Z,54.12
2018-07-19T01:16:31.738Z,53.37
2018-07-19T01:17:02.882Z,53.75
2018-07-19T01:17:34.075Z,53.92
2018-07-19T01:18:05.209Z,54.21
2018-07-19T01:18:36.352Z,54.14
2018-07-19T01:19:07.531Z,54.19
2018-07-19T01:19:38.666Z,54.53
2018-07-19T01:20:09.837Z,53.67
2018-07-19T01:20:41.056Z,53.75
2018-07-19T01:21:12.185Z,54.44
2018-07-19T01:21:43.316Z,53.96
2018-07-19T01:22:14.556Z,54.35
2018-07-19T01:22:45.707Z,54.11
2018-07-19T01:23:16.911Z,53.99
2018-07-19T01:23:48.049Z,53.48
2018-07-19T01:24:19.236Z,53.69
2018-07-19T01:24:50.382Z,54.20
2018-07-19T01:25:21.507Z,53.72
2018-07-19T01:25:52.835Z,53.46
2018-07-19T01:26:24.012Z,52.79
2018-07-19T01:26:55.988Z,53.75
2018-07-19T01:27:28.201Z,53.74
2018-07-19T01:27:59.413Z,53.69
2018-07-19T01:28:30.595Z,53.09
2018-07-19T01:29:01.715Z,53.28
2018-07-19T01:29:32.917Z,52.76
2018-07-19T01:30:04.097Z,52.50
2018-07-19T01:30:35.316Z,52.71
2018-07-19T01:31:06.451Z,53.25
2018-07-19T01:31:37.625Z,53.01
2018-07-19T01:32:09.212Z,53.62
2018-07-19T01:32:40.407Z,53.64
2018-07-19T01:33:11.636Z,52.94
2018-07-19T01:33:42.826Z,52.70
2018-07-19T01:34:14.052Z,53.36
2018-07-19T01:34:45.176Z,52.73
2018-07-19T01:35:16.413Z,52.80
2018-07-19T01:35:48.264Z,53.72
2018-07-19T01:36:19.459Z,52.68
2018-07-19T01:36:50.692Z,53.29
2018-07-19T01:37:21.823Z,53.49
2018-07-19T01:37:52.995Z,52.83
2018-07-19T01:38:24.189Z,53.36
2018-07-19T01:38:55.393Z,52.38
2018-07-19T01:39:26.518Z,53.33
2018-07-19T01:39:57.711Z,53.14
2018-07-19T01:40:28.838Z,52.19
2018-07-19T01:40:59.967Z,53.21
2018-07-19T01:41:31.180Z,51.99
2018-07-19T01:42:02.303Z,52.22
2018-07-19T01:42:33.553Z,53.20
2018-07-19T01:43:04.720Z,52.23
2018-07-19T01:43:35.920Z,51.73
2018-07-19T01:44:07.131Z,51.71
2018-07-19T01:44:38.382Z,51.77
2018-07-19T01:45:09.572Z,52.71
2018-07-19T01:45:40.722Z,51.88
2018-07-19T01:46:11.850Z,52.69
2018-07-19T01:46:42.964Z,51.61
2018-07-19T01:47:14.151Z,52.47
2018-07-19T01:47:45.330Z,51.55
2018-07-19T01:48:16.564Z,51.46
2018-07-19T01:48:47.725Z,51.54
2018-07-19T01:49:18.858Z,51.42
2018-07-19T01:49:50.105Z,51.62
2018-07-19T01:50:21.242Z,51.97
2018-07-19T01:50:52.371Z,51.86
2018-07-19T01:51:23.621Z,51.77
2018-07-19T01:51:54.763Z,51.29
2018-07-19T01:52:25.948Z,51.75
2018-07-19T01:52:57.091Z,51.46
2018-07-19T01:53:28.311Z,51.45
2018-07-19T01:53:59.511Z,51.59
2018-07-19T01:54:30.764Z,52.28
2018-07-19T01:55:01.975Z,51.64
2018-07-19T01:55:33.091Z,51.69
2018-07-19T01:56:04.276Z,52.15
2018-07-19T01:56:35.418Z,52.21
2018-07-19T01:57:06.548Z,51.29
2018-07-19T01:57:37.689Z,52.08
2018-07-19T01:58:08.815Z,52.13
2018-07-19T01:58:39.988Z,52.00
2018-07-19T01:59:11.128Z,51.92
2018-07-19T01:59:42.260Z,52.63
2018-07-19T02:00:13.477Z,51.57
2018-07-19T02:00:44.580Z,52.45
2018-07-19T02:01:15.699Z,51.83
2018-07-19T02:01:46.905Z,52.72
2018-07-19T02:02:18.032Z,52.15
2018-07-19T02:02:49.156Z,52.66
2018-07-19T02:03:20.292Z,52.98
2018-07-19T02:03:51.497Z,52.58
2018-07-19T02:04:22.632Z,52.44
2018-07-19T02:04:53.850Z,52.32
2018-07-19T02:05:25.101Z,52.82
2018-07-19T02:05:56.302Z,53.10
2018-07-19T02:06:27.475Z,52.64
2018-07-19T02:06:58.684Z,52.25
2018-07-19T02:07:29.838Z,52.47
2018-07-19T02:08:01.021Z,52.49
2018-07-19T02:08:32.155Z,53.49
2018-07-19T02:09:03.308Z,53.03
2018-07-19T02:09:34.488Z,52.56
2018-07-19T02:10:05.708Z,52.48
2018-07-19T02:10:36.976Z,53.06
2018-07-19T02:11:08.172Z,52.42
2018-07-19T02:11:39.387Z,52.75
2018-07-19T02:12:10.604Z,53.15
2018-07-19T02:12:41.811Z,52.97
2018-07-19T02:13:12.940Z,53.33
2018-07-19T02:13:44.121Z,53.10
2018-07-19T02:14:15.247Z,52.86
2018-07-19T02:14:46.490Z,52.38
2018-07-19T02:15:17.681Z,52.83
2018-07-19T02:15:48.961Z,52.36
2018-07-19T02:16:20.127Z,52.34
2018-07-19T02:16:51.251Z,52.80
2018-07-19T02:17:22.519Z,52.95
2018-07-19T02:17:53.660Z,53.18
2018-07-19T02:18:24.896Z,52.65
2018-07-19T02:18:56.071Z,53.45
2018-07-19T02:19:28.300Z,53.46
2018-07-19T02:19:59.498Z,52.48
2018-07-19T02:20:30.705Z,53.74
2018-07-19T02:21:01.935Z,52.63
2018-07-19T02:21:33.100Z,53.32
2018-07-19T02:22:04.279Z,53.22
2018-07-19T02:22:35.468Z,53.37
2018-07-19T02:23:06.583Z,53.10
2018-07-19T02:23:37.778Z,52.32
2018-07-19T02:24:09.039Z,52.44
2018-07-19T02:24:40.196Z,53.01
2018-07-19T02:25:11.491Z,53.07
2018-07-19T02:25:42.619Z,52.62
2018-07-19T02:26:13.775Z,52.48
2018-07-19T02:26:45.672Z,52.79
2018-07-19T02:27:16.864Z,52.82
2018-07-19T02:27:48.031Z,52.36
2018-07-19T02:28:19.159Z,52.93
2018-07-19T02:28:50.328Z,51.72
2018-07-19T02:29:22.136Z,52.04
2018-07-19T02:29:53.299Z,53.03
2018-07-19T02:30:24.485Z,52.11
2018-07-19T02:30:55.733Z,52.41
2018-07-19T02:31:26.919Z,52.44
2018-07-19T02:31:58.054Z,52.63
2018-07-19T02:32:29.195Z,53.02
2018-07-19T02:33:00.309Z,53.22
2018-07-19T02:33:31.471Z,53.08
2018-07-19T02:34:02.666Z,53.03
2018-07-19T02:34:33.843Z,53.20
2018-07-19T02:35:05.081Z,52.40
2018-07-19T02:35:36.223Z,53.68
2018-07-19T02:36:08.713Z,52.72
2018-07-19T02:36:39.836Z,53.17
2018-07-19T02:37:11.089Z,52.47
2018-07-19T02:37:42.232Z,53.50
2018-07-19T02:38:13.416Z,52.97
2018-07-19T02:38:44.539Z,52.71
2018-07-19T02:39:15.716Z,52.75
2018-07-19T02:39:46.875Z,52.37
2018-07-19T02:40:18.023Z,52.13
2018-07-19T02:40:49.205Z,52.59
2018-07-19T02:41:20.400Z,52.87
2018-07-19T02:41:51.560Z,51.89
2018-07-19T02:42:22.739Z,52.45
2018-07-19T02:42:53.912Z,52.09
2018-07-19T02:43:25.095Z,52.74
2018-07-19T02:43:56.299Z,51.62
2018-07-19T02:44:27.423Z,51.61
2018-07-19T02:44:58.601Z,52.16
2018-07-19T02:45:29.869Z,52.06
2018-07-19T02:46:01.044Z,51.28
2018-07-19T02:46:32.170Z,51.00
2018-07-19T02:47:03.311Z,51.49
2018-07-19T02:47:34.440Z,50.44
2018-07-19T02:48:05.616Z,50.82
2018-07-19T02:48:36.883Z,51.33
2018-07-19T02:49:08.075Z,51.32
2018-07-19T02:49:39.208Z,50.32
2018-07-19T02:50:12.200Z,50.45
2018-07-19T02:50:43.438Z,51.04
2018-07-19T02:51:14.647Z,50.75
2018-07-19T02:51:45.755Z,50.28
2018-07-19T02:52:16.928Z,50.41
2018-07-19T02:52:48.128Z,50.36
2018-07-19T02:53:19.240Z,50.42
2018-07-19T02:53:50.466Z,50.75
2018-07-19T02:54:22.155Z,50.05
2018-07-19T02:54:53.326Z,49.86
2018-07-19T02:55:24.504Z,49.98
2018-07-19T02:55:55.720Z,50.00
2018-07-19T02:56:26.880Z,50.41
2018-07-19T02:56:58.053Z,50.53
2018-07-19T02:57:29.180Z,50.98
2018-07-19T02:58:00.291Z,50.70
2018-07-19T02:58:31.437Z,50.06
2018-07-19T02:59:02.668Z,50.65
2018-07-19T02:59:33.914Z,50.50
2018-07-19T03:00:05.106Z,50.47
2018-07-19T03:00:36.227Z,50.66
2018-07-19T03:01:07.358Z,50.56
2018-07-19T03:01:38.500Z,50.12
2018-07-19T03:02:09.728Z,50.49
2018-07-19T03:02:40.876Z,50.57
2018-07-19T03:03:12.020Z,50.03
2018-07-19T03:03:43.232Z,50.25
2018-07-19T03:04:14.383Z,50.69
2018-07-19T03:04:45.505Z,50.21
2018-07-19T03:05:16.690Z,50.06
2018-07-19T03:05:47.867Z,50.14
2018-07-19T03:06:18.983Z,49.84
2018-07-19T03:06:50.112Z,50.22
2018-07-19T03:07:21.280Z,50.83
2018-07-19T03:07:52.415Z,50.84
2018-07-19T03:08:23.547Z,50.44
2018-07-19T03:08:54.737Z,50.49
2018-07-19T03:09:25.911Z,49.91
2018-07-19T03:09:57.047Z,49.69
2018-07-19T03:10:28.302Z,49.89
2018-07-19T03:10:59.482Z,49.78
2018-07-19T03:11:30.616Z,50.06
2018-07-19T03:12:01.828Z,49.60
2018-07-19T03:12:32.955Z,50.27
2018-07-19T03:13:04.152Z,49.53
2018-07-19T03:13:35.408Z,49.55
2018-07-19T03:14:06.685Z,49.75
2018-07-19T03:14:37.843Z,50.39
2018-07-19T03:15:08.966Z,50.14
2018-07-19T03:15:40.106Z,49.81
2018-07-19T03:16:11.284Z,49.65
2018-07-19T03:16:42.541Z,49.82
2018-07-19T03:17:13.752Z,50.14
2018-07-19T03:17:44.952Z,50.14
2018-07-19T03:18:16.179Z,49.60
2018-07-19T03:18:47.307Z,49.22
2018-07-19T03:19:18.551Z,49.83
2018-07-19T03:19:49.782Z,49.28
2018-07-19T03:20:20.916Z,49.57
2018-07-19T03:20:52.074Z,49.06
2018-07-19T03:21:23.344Z,49.91
2018-07-19T03:21:54.580Z,50.07
2018-07-19T03:22:25.783Z,49.98
2018-07-19T03:22:56.964Z,50.07
2018-07-19T03:23:28.144Z,50.02
2018-07-19T03:23:59.267Z,49.31
2018-07-19T03:24:30.452Z,49.22
2018-07-19T03:25:01.690Z,49.62
2018-07-19T03:25:33.517Z,49.10
2018-07-19T03:26:04.684Z,48.96
2018-07-19T03:26:35.862Z,48.65
2018-07-19T03:27:07.060Z,48.13
2018-07-19T03:27:38.244Z,47.52
2018-07-19T03:28:09.455Z,47.29
2018-07-19T03:28:40.706Z,47.04
2018-07-19T03:29:11.884Z,46.12
2018-07-19T03:29:43.101Z,45.67
2018-07-19T03:30:14.263Z,46.17
2018-07-19T03:30:45.392Z,45.82
2018-07-19T03:31:16.621Z,45.26
2018-07-19T03:31:47.790Z,45.01
2018-07-19T03:32:18.987Z,44.45
2018-07-19T03:32:50.143Z,44.91
2018-07-19T03:33:21.280Z,44.30
2018-07-19T03:33:53.157Z,44.13
2018-07-19T03:34:24.336Z,45.01
2018-07-19T03:34:55.507Z,44.39
2018-07-19T03:35:26.707Z,44.64
2018-07-19T03:35:57.860Z,43.73
2018-07-19T03:36:29.036Z,44.43
2018-07-19T03:37:00.183Z,43.47
2018-07-19T03:37:31.319Z,44.25
2018-07-19T03:38:02.477Z,43.61
2018-07-19T03:38:33.717Z,43.74
2018-07-19T03:39:04.986Z,44.01
2018-07-19T03:39:36.169Z,43.93
2018-07-19T03:40:07.337Z,43.01
2018-07-19T03:40:38.437Z,43.56
2018-07-19T03:41:09.612Z,43.55
2018-07-19T03:41:40.846Z,42.97
2018-07-19T03:42:12.123Z,43.09
2018-07-19T03:42:43.312Z,42.82
2018-07-19T03:43:14.578Z,41.88
2018-07-19T03:43:45.717Z,42.09
2018-07-19T03:44:17.715Z,41.53
2018-07-19T03:44:48.855Z,41.20
2018-07-19T03:45:20.064Z,40.56
2018-07-19T03:45:51.237Z,40.91
2018-07-19T03:46:22.383Z,40.10
2018-07-19T03:46:53.620Z,40.60
2018-07-19T03:47:24.755Z,40.46
2018-07-19T03:47:57.106Z,39.17
2018-07-19T03:48:28.246Z,40.89
2018-07-19T03:48:59.378Z,40.24
2018-07-19T03:49:30.636Z,40.49
2018-07-19T03:50:01.784Z,40.25
2018-07-19T03:50:32.975Z,40.04
2018-07-19T03:51:04.251Z,40.28
2018-07-19T03:51:35.465Z,40.11
2018-07-19T03:52:06.700Z,40.21
2018-07-19T03:52:37.895Z,40.30
2018-07-19T03:53:09.173Z,39.94
2018-07-19T03:53:40.475Z,39.90
2018-07-19T03:54:11.674Z,39.16
2018-07-19T03:54:42.814Z,39.27
2018-07-19T03:55:14.032Z,39.42
2018-07-19T03:55:45.223Z,38.94
2018-07-19T03:56:16.469Z,39.11
2018-07-19T03:56:47.635Z,39.21
2018-07-19T03:57:18.923Z,39.16
2018-07-19T03:57:50.130Z,39.24
2018-07-19T03:58:21.262Z,38.60
2018-07-19T03:58:52.466Z,38.78
2018-07-19T03:59:23.618Z,38.41
2018-07-19T03:59:54.822Z,38.41
2018-07-19T04:00:26.090Z,38.39
2018-07-19T04:00:57.312Z,38.70
2018-07-19T04:01:28.472Z,38.76
2018-07-19T04:01:59.737Z,38.94
2018-07-19T04:02:30.815Z,39.88
2018-07-19T04:03:02.099Z,40.23
2018-07-19T04:03:33.252Z,40.83
2018-07-19T04:04:04.465Z,40.51
2018-07-19T04:04:35.589Z,40.61
2018-07-19T04:05:06.723Z,41.22
2018-07-19T04:05:38.011Z,41.39
2018-07-19T04:06:09.161Z,41.63
2018-07-19T04:06:40.378Z,42.73
2018-07-19T04:07:11.524Z,42.90
2018-07-19T04:07:42.652Z,43.43
2018-07-19T04:08:13.855Z,43.24
2018-07-19T04:08:45.040Z,42.60
2018-07-19T04:09:16.347Z,44.57
2018-07-19T04:09:47.556Z,43.99
2018-07-19T04:10:18.760Z,43.92
2018-07-19T04:10:50.032Z,45.26
2018-07-19T04:11:21.184Z,45.22
2018-07-19T04:11:52.350Z,45.03
2018-07-19T04:12:23.628Z,44.64
2018-07-19T04:12:54.774Z,45.67
2018-07-19T04:13:25.966Z,46.14
2018-07-19T04:13:57.153Z,46.53
2018-07-19T04:14:28.339Z,46.42
2018-07-19T04:14:59.581Z,45.71
2018-07-19T04:15:30.752Z,45.67
2018-07-19T04:16:01.937Z,46.07
2018-07-19T04:16:33.105Z,46.91
2018-07-19T04:17:04.328Z,46.50
2018-07-19T04:17:35.443Z,46.41
2018-07-19T04:18:06.639Z,46.15
2018-07-19T04:18:37.999Z,46.10
2018-07-19T04:19:09.221Z,46.21
2018-07-19T04:19:40.375Z,46.89
2018-07-19T04:20:11.567Z,46.19
2018-07-19T04:20:42.791Z,46.15
2018-07-19T04:21:13.946Z,45.91
2018-07-19T04:21:45.086Z,45.80
2018-07-19T04:22:16.336Z,45.60
2018-07-19T04:22:47.541Z,46.28
2018-07-19T04:23:18.672Z,46.29
2018-07-19T04:23:49.897Z,46.45
2018-07-19T04:24:21.010Z,45.93
2018-07-19T04:24:52.141Z,45.70
2018-07-19T04:25:23.370Z,45.31
2018-07-19T04:25:54.625Z,45.95
2018-07-19T04:26:25.792Z,45.43
2018-07-19T04:26:56.915Z,45.96
2018-07-19T04:27:28.097Z,44.86
2018-07-19T04:27:59.280Z,45.92
2018-07-19T04:28:30.404Z,46.27
2018-07-19T04:29:02.339Z,46.16
2018-07-19T04:29:33.581Z,46.32
2018-07-19T04:30:04.777Z,45.53
2018-07-19T04:30:35.980Z,46.09
2018-07-19T04:31:07.218Z,46.01
2018-07-19T04:31:38.354Z,45.69
2018-07-19T04:32:09.513Z,45.70
2018-07-19T04:32:40.636Z,46.71
2018-07-19T04:33:12.387Z,45.96
2018-07-19T04:33:43.573Z,45.67
2018-07-19T04:34:14.763Z,45.76
2018-07-19T04:34:45.917Z,46.90
2018-07-19T04:35:17.103Z,46.12
2018-07-19T04:35:48.288Z,45.78
2018-07-19T04:36:19.547Z,46.00
2018-07-19T04:36:50.689Z,46.31
2018-07-19T04:37:21.938Z,46.53
2018-07-19T04:37:53.143Z,46.16
2018-07-19T04:38:24.322Z,46.48
2018-07-19T04:38:55.569Z,45.16
2018-07-19T04:39:26.696Z,46.34
2018-07-19T04:39:57.859Z,44.95
2018-07-19T04:40:29.120Z,44.71
2018-07-19T04:41:00.311Z,43.86
2018-07-19T04:41:31.456Z,44.44
2018-07-19T04:42:02.711Z,44.04
2018-07-19T04:42:33.848Z,44.54
2018-07-19T04:43:05.026Z,44.44
2018-07-19T04:43:36.212Z,45.37
2018-07-19T04:44:07.418Z,44.50
2018-07-19T04:44:38.683Z,45.95
2018-07-19T04:45:09.870Z,44.93
2018-07-19T04:45:41.082Z,45.30
2018-07-19T04:46:12.233Z,45.29
2018-07-19T04:46:43.376Z,44.90
2018-07-19T04:47:14.520Z,45.29
2018-07-19T04:47:45.659Z,45.63
2018-07-19T04:48:16.834Z,45.42
2018-07-19T04:48:48.077Z,46.31
2018-07-19T04:49:19.361Z,45.43
2018-07-19T04:49:50.640Z,45.50
2018-07-19T04:50:21.835Z,45.88
2018-07-19T04:50:53.149Z,44.86
2018-07-19T04:51:24.348Z,44.36
2018-07-19T04:51:55.515Z,44.22
2018-07-19T04:52:26.712Z,43.75
2018-07-19T04:52:57.988Z,44.62
2018-07-19T04:53:29.266Z,43.62
2018-07-19T04:54:01.604Z,43.45
2018-07-19T04:54:32.826Z,43.15
2018-07-19T04:55:04.023Z,42.09
2018-07-19T04:55:35.187Z,41.03
2018-07-19T04:56:06.402Z,41.68
2018-07-19T04:56:37.728Z,41.22
2018-07-19T04:57:08.859Z,40.72
2018-07-19T04:57:40.053Z,40.01
2018-07-19T04:58:11.244Z,39.78
2018-07-19T04:58:42.467Z,41.16
2018-07-19T04:59:13.696Z,41.46
2018-07-19T04:59:44.893Z,41.41
2018-07-19T05:00:16.023Z,41.91
2018-07-19T05:00:47.216Z,41.76
2018-07-19T05:01:18.506Z,40.91
2018-07-19T05:01:49.736Z,40.97
2018-07-19T05:02:20.831Z,41.20
2018-07-19T05:02:52.125Z,41.29
2018-07-19T05:03:23.372Z,41.73
2018-07-19T05:03:54.557Z,41.65
2018-07-19T05:04:25.756Z,42.40
2018-07-19T05:04:56.900Z,43.07
2018-07-19T05:05:28.045Z,43.62
2018-07-19T05:05:59.972Z,43.35
2018-07-19T05:06:31.168Z,43.92
2018-07-19T05:07:02.312Z,43.83
2018-07-19T05:07:33.537Z,44.37
2018-07-19T05:08:04.770Z,44.54
2018-07-19T05:08:36.031Z,44.64
2018-07-19T05:09:07.281Z,45.21
2018-07-19T05:09:38.464Z,45.24
2018-07-19T05:10:09.665Z,44.11
2018-07-19T05:10:40.841Z,44.46
2018-07-19T05:11:11.987Z,44.65
2018-07-19T05:11:43.788Z,44.50
2018-07-19T05:12:14.927Z,45.27
2018-07-19T05:12:46.123Z,45.73
2018-07-19T05:13:17.330Z,46.23
2018-07-19T05:13:48.520Z,45.47
2018-07-19T05:14:19.701Z,45.77
2018-07-19T05:14:50.974Z,44.98
2018-07-19T05:15:22.119Z,45.19
2018-07-19T05:15:53.317Z,45.30
2018-07-19T05:16:24.543Z,44.36
2018-07-19T05:16:55.691Z,45.56
2018-07-19T05:17:26.912Z,44.75
2018-07-19T05:17:58.101Z,44.98
2018-07-19T05:18:29.243Z,44.87
2018-07-19T05:19:00.456Z,43.65
2018-07-19T05:19:31.585Z,44.88
2018-07-19T05:20:02.727Z,44.14
2018-07-19T05:20:34.062Z,44.39
2018-07-19T05:21:05.455Z,44.11
2018-07-19T05:21:36.734Z,42.65
2018-07-19T05:22:07.995Z,40.93
2018-07-19T05:22:39.168Z,41.03
2018-07-19T05:23:10.417Z,40.31
2018-07-19T05:23:41.648Z,41.01
2018-07-19T05:24:12.925Z,41.62
2018-07-19T05:24:44.087Z,42.10
2018-07-19T05:25:15.270Z,42.45
2018-07-19T05:25:46.436Z,42.69
2018-07-19T05:26:17.548Z,42.97
2018-07-19T05:26:49.317Z,43.01
2018-07-19T05:27:20.443Z,43.14
2018-07-19T05:27:51.592Z,43.99
2018-07-19T05:28:22.798Z,44.03
2018-07-19T05:28:53.997Z,43.71
2018-07-19T05:29:25.196Z,44.12
2018-07-19T05:29:56.407Z,44.18
2018-07-19T05:30:27.644Z,44.20
2018-07-19T05:30:58.845Z,44.67
2018-07-19T05:31:30.129Z,44.63
2018-07-19T05:32:01.280Z,44.37
2018-07-19T05:32:32.421Z,44.88
2018-07-19T05:33:03.804Z,44.55
2018-07-19T05:33:35.045Z,44.52
2018-07-19T05:34:06.333Z,44.91
2018-07-19T05:34:37.621Z,45.14
2018-07-19T05:35:08.829Z,45.03
2018-07-19T05:35:40.166Z,44.91
2018-07-19T05:36:11.291Z,43.96
2018-07-19T05:36:42.518Z,44.56
2018-07-19T05:37:13.712Z,43.96
2018-07-19T05:37:44.899Z,43.52
2018-07-19T05:38:16.113Z,45.63
2018-07-19T05:38:47.326Z,44.93
2018-07-19T05:39:18.589Z,44.92
2018-07-19T05:39:49.812Z,45.75
2018-07-19T05:40:21.011Z,46.26
2018-07-19T05:40:52.176Z,44.84
2018-07-19T05:41:23.308Z,46.21
2018-07-19T05:41:54.489Z,45.60
2018-07-19T05:42:25.784Z,45.37
2018-07-19T05:42:56.852Z,46.10
2018-07-19T05:43:27.988Z,46.42
2018-07-19T05:43:59.156Z,46.41
2018-07-19T05:44:30.371Z,46.44
2018-07-19T05:45:01.549Z,46.30
2018-07-19T05:45:32.752Z,46.46
2018-07-19T05:46:04.053Z,46.96
2018-07-19T05:46:35.279Z,46.86
2018-07-19T05:47:06.457Z,46.30
2018-07-19T05:47:37.596Z,46.49
2018-07-19T05:48:08.789Z,45.95
2018-07-19T05:48:39.918Z,45.95
2018-07-19T05:49:11.118Z,46.26
2018-07-19T05:49:42.312Z,45.46
2018-07-19T05:50:13.487Z,46.49
2018-07-19T05:50:44.652Z,46.19
2018-07-19T05:51:15.829Z,46.74
2018-07-19T05:51:47.008Z,46.90
2018-07-19T05:52:18.823Z,46.04
2018-07-19T05:52:50.000Z,45.90
2018-07-19T05:53:21.180Z,45.95
2018-07-19T05:53:52.416Z,46.13
2018-07-19T05:54:23.676Z,45.47
2018-07-19T05:54:54.959Z,45.63
2018-07-19T05:55:26.091Z,45.41
2018-07-19T05:55:57.219Z,44.95
2018-07-19T05:56:29.039Z,45.39
2018-07-19T05:57:00.332Z,45.10
2018-07-19T05:57:31.515Z,45.31
2018-07-19T05:58:02.756Z,45.30
2018-07-19T05:58:34.043Z,45.29
2018-07-19T05:59:05.287Z,45.48
2018-07-19T05:59:36.444Z,44.12
2018-07-19T06:00:08.629Z,44.22
2018-07-19T06:00:39.800Z,43.84
2018-07-19T06:01:11.067Z,43.74
2018-07-19T06:01:42.216Z,43.63
2018-07-19T06:02:13.434Z,43.49
2018-07-19T06:02:44.584Z,42.90
2018-07-19T06:03:15.768Z,42.56
2018-07-19T06:03:46.980Z,41.92
2018-07-19T06:04:18.160Z,41.36
2018-07-19T06:04:49.410Z,41.92
2018-07-19T06:05:20.558Z,41.76
2018-07-19T06:05:51.692Z,41.58
2018-07-19T06:06:22.908Z,41.94
2018-07-19T06:06:54.136Z,41.44
2018-07-19T06:07:25.267Z,41.24
2018-07-19T06:07:56.414Z,40.98
2018-07-19T06:08:27.665Z,40.95
2018-07-19T06:08:58.890Z,41.50
2018-07-19T06:09:30.119Z,40.52
2018-07-19T06:10:01.354Z,40.77
2018-07-19T06:10:32.548Z,41.39
2018-07-19T06:11:03.730Z,40.10
2018-07-19T06:11:34.944Z,40.72
2018-07-19T06:12:06.169Z,41.01
2018-07-19T06:12:37.344Z,41.12
2018-07-19T06:13:08.523Z,41.28
2018-07-19T06:13:39.797Z,41.63
2018-07-19T06:14:10.931Z,41.60
2018-07-19T06:14:42.104Z,41.97
2018-07-19T06:15:13.296Z,41.72
2018-07-19T06:15:44.487Z,41.66
2018-07-19T06:16:15.656Z,42.47
2018-07-19T06:16:46.851Z,42.31
2018-07-19T06:17:17.984Z,43.10
2018-07-19T06:17:49.256Z,42.53
2018-07-19T06:18:20.435Z,42.98
2018-07-19T06:18:51.656Z,42.98
2018-07-19T06:19:22.796Z,43.42
2018-07-19T06:19:53.998Z,43.44
2018-07-19T06:20:25.147Z,43.80
2018-07-19T06:20:56.295Z,44.12
2018-07-19T06:21:27.553Z,44.06
2018-07-19T06:21:58.768Z,44.50
2018-07-19T06:22:29.981Z,44.80
2018-07-19T06:23:01.158Z,44.63
2018-07-19T06:23:32.313Z,44.85
2018-07-19T06:24:03.632Z,44.79
2018-07-19T06:24:34.910Z,45.04
2018-07-19T06:25:06.201Z,45.17
2018-07-19T06:25:37.429Z,45.32
2018-07-19T06:26:08.653Z,45.54
2018-07-19T06:26:39.872Z,45.01
2018-07-19T06:27:11.083Z,44.37
2018-07-19T06:27:42.360Z,45.44
2018-07-19T06:28:13.593Z,45.47
2018-07-19T06:28:44.716Z,45.50
2018-07-19T06:29:15.944Z,45.27
2018-07-19T06:29:47.947Z,45.82
2018-07-19T06:30:19.230Z,45.52
2018-07-19T06:30:50.788Z,45.91
2018-07-19T06:31:21.969Z,46.40
2018-07-19T06:31:53.159Z,45.52
2018-07-19T06:32:24.458Z,46.37
2018-07-19T06:32:55.650Z,47.09
2018-07-19T06:33:26.797Z,45.87
2018-07-19T06:33:58.000Z,47.53
2018-07-19T06:34:29.185Z,47.29
2018-07-19T06:35:00.488Z,47.03
2018-07-19T06:35:31.776Z,46.94
2018-07-19T06:36:03.190Z,47.41
2018-07-19T06:36:34.398Z,47.61
2018-07-19T06:37:05.609Z,47.68
2018-07-19T06:37:36.810Z,47.42
2018-07-19T06:38:08.120Z,47.94
2018-07-19T06:38:39.268Z,48.01
2018-07-19T06:39:10.438Z,48.17
2018-07-19T06:39:41.647Z,47.09
2018-07-19T06:40:12.851Z,47.98
2018-07-19T06:40:44.020Z,48.29
2018-07-19T06:41:15.163Z,47.97
2018-07-19T06:41:46.368Z,47.20
2018-07-19T06:42:17.567Z,47.62